createdAt,value
2023-04-15T00:03:35.169Z,96590.53
2023-04-15T00:06:05.586Z,96609.00
2023-04-15T00:08:33.033Z,96601.28
2023-04-15T00:11:03.278Z,96601.09
2023-04-15T00:13:32.763Z,96593.34
2023-04-15T00:15:59.895Z,96604.44
2023-04-15T00:18:27.029Z,96591.13
2023-04-15T00:20:54.441Z,96592.19
2023-04-15T00:23:21.522Z,96595.44
2023-04-15T00:25:49.030Z,96582.34
2023-04-15T00:28:16.391Z,96600.72
2023-04-15T00:30:44.295Z,96589.03
2023-04-15T00:33:12.036Z,96585.00
2023-04-15T00:35:40.052Z,96589.44
2023-04-15T00:38:11.028Z,96587.78
2023-04-15T00:40:38.377Z,96575.06
2023-04-15T00:43:05.766Z,96576.69
2023-04-15T00:45:33.940Z,96578.84
2023-04-15T00:48:01.116Z,96568.94
2023-04-15T00:50:29.110Z,96566.81
2023-04-15T00:52:56.292Z,96572.69
2023-04-15T00:55:27.381Z,96569.09
2023-04-15T00:57:55.077Z,96571.81
2023-04-15T01:00:25.115Z,96545.44
2023-04-15T01:02:53.564Z,96570.81
2023-04-15T01:05:20.986Z,96564.78
2023-04-15T01:07:49.330Z,96567.00
2023-04-15T01:10:17.173Z,96564.50
2023-04-15T01:12:44.717Z,96560.81
2023-04-15T01:15:12.292Z,96557.94
2023-04-15T01:17:57.854Z,96541.47
2023-04-15T01:20:26.259Z,96573.88
2023-04-15T01:22:55.016Z,96573.16
2023-04-15T01:25:35.124Z,96571.03
2023-04-15T01:28:05.161Z,96568.44
2023-04-15T01:30:35.949Z,96572.81
2023-04-15T01:33:03.193Z,96574.47
2023-04-15T01:35:34.188Z,96571.22
2023-04-15T01:38:09.175Z,96575.84
2023-04-15T01:40:38.691Z,96581.41
2023-04-15T01:43:05.672Z,96575.88
2023-04-15T01:45:32.624Z,96588.31
2023-04-15T01:47:59.671Z,96596.75
2023-04-15T01:50:27.209Z,96597.50
2023-04-15T01:52:57.659Z,96596.91
2023-04-15T01:55:25.712Z,96588.91
2023-04-15T01:57:53.104Z,96596.06
2023-04-15T02:00:22.716Z,96595.41
2023-04-15T02:03:16.153Z,96605.75
2023-04-15T02:05:43.827Z,96589.16
2023-04-15T02:08:11.398Z,96596.94
2023-04-15T02:10:39.092Z,96596.19
2023-04-15T02:13:05.938Z,96595.09
2023-04-15T02:15:33.697Z,96590.84
2023-04-15T02:18:03.711Z,96585.59
2023-04-15T02:20:32.463Z,96597.56
2023-04-15T02:22:59.944Z,96593.13
2023-04-15T02:25:26.963Z,96586.81
2023-04-15T02:27:54.986Z,96590.03
2023-04-15T02:30:23.977Z,96581.88
2023-04-15T02:32:51.443Z,96588.97
2023-04-15T02:35:21.198Z,96584.03
2023-04-15T02:37:48.099Z,96581.22
2023-04-15T02:40:15.221Z,96585.00
2023-04-15T02:42:44.378Z,96579.47
2023-04-15T02:45:16.064Z,96581.06
2023-04-15T02:47:46.336Z,96590.81
2023-04-15T02:50:13.695Z,96604.72
2023-04-15T02:52:43.493Z,96595.44
2023-04-15T02:55:11.234Z,96602.03
2023-04-15T02:57:39.481Z,96597.91
2023-04-15T03:00:10.683Z,96594.22
2023-04-15T03:02:42.455Z,96611.59
2023-04-15T03:05:15.851Z,96603.34
2023-04-15T03:07:49.275Z,96603.38
2023-04-15T03:10:16.854Z,96598.88
2023-04-15T03:12:43.809Z,96605.84
2023-04-15T03:15:16.608Z,96610.00
2023-04-15T03:17:49.720Z,96609.97
2023-04-15T03:20:17.316Z,96609.47
2023-04-15T03:22:44.809Z,96611.38
2023-04-15T03:25:12.235Z,96606.72
2023-04-15T03:27:40.706Z,96604.47
2023-04-15T03:30:11.570Z,96609.78
2023-04-15T03:32:40.691Z,96612.13
2023-04-15T03:35:09.964Z,96621.38
2023-04-15T03:37:37.259Z,96622.91
2023-04-15T03:40:11.686Z,96615.47
2023-04-15T03:42:38.855Z,96608.50
2023-04-15T03:45:06.606Z,96610.66
2023-04-15T03:47:34.250Z,96619.25
2023-04-15T03:50:02.268Z,96638.06
2023-04-15T03:52:29.298Z,96635.13
2023-04-15T03:54:56.455Z,96642.22
2023-04-15T03:57:23.581Z,96651.81
2023-04-15T03:59:51.469Z,96645.59
2023-04-15T04:02:18.397Z,96654.56
2023-04-15T04:04:46.558Z,96666.34
2023-04-15T04:07:18.130Z,96663.31
2023-04-15T04:09:47.050Z,96666.81
2023-04-15T04:12:14.589Z,96653.91
2023-04-15T04:14:41.905Z,96662.53
2023-04-15T04:17:09.070Z,96669.81
2023-04-15T04:19:37.672Z,96670.81
2023-04-15T04:22:04.966Z,96679.13
2023-04-15T04:24:32.490Z,96680.81
2023-04-15T04:27:01.056Z,96676.66
2023-04-15T04:29:27.916Z,96684.31
2023-04-15T04:31:54.902Z,96690.91
2023-04-15T04:34:21.976Z,96693.44
2023-04-15T04:36:49.602Z,96698.38
2023-04-15T04:39:17.039Z,96698.38
2023-04-15T04:41:46.842Z,96696.28
2023-04-15T04:44:13.834Z,96695.19
2023-04-15T04:46:41.479Z,96700.09
2023-04-15T04:49:08.507Z,96704.78
2023-04-15T04:51:36.278Z,96711.28
2023-04-15T04:54:04.504Z,96706.84
2023-04-15T04:56:32.164Z,96711.03
2023-04-15T04:58:59.998Z,96715.19
2023-04-15T05:01:29.749Z,96719.66
2023-04-15T05:03:57.540Z,96724.13
2023-04-15T05:06:24.456Z,96728.16
2023-04-15T05:08:52.130Z,96732.28
2023-04-15T05:11:20.059Z,96740.28
2023-04-15T05:13:47.270Z,96741.91
2023-04-15T05:16:15.302Z,96732.28
2023-04-15T05:18:43.062Z,96738.94
2023-04-15T05:21:11.962Z,96740.91
2023-04-15T05:23:40.258Z,96749.16
2023-04-15T05:26:07.494Z,96752.56
2023-04-15T05:28:35.371Z,96749.28
2023-04-15T05:31:03.109Z,96756.19
2023-04-15T05:33:33.571Z,96748.41
2023-04-15T05:36:01.576Z,96752.69
2023-04-15T05:38:29.192Z,96767.16
2023-04-15T05:40:57.145Z,96774.88
2023-04-15T05:43:25.197Z,96765.19
2023-04-15T05:45:52.835Z,96756.78
2023-04-15T05:48:21.178Z,96772.38
2023-04-15T05:50:50.086Z,96787.97
2023-04-15T05:53:20.960Z,96782.44
2023-04-15T05:55:48.208Z,96777.94
2023-04-15T05:58:15.298Z,96776.91
2023-04-15T06:00:42.934Z,96794.94
2023-04-15T06:03:12.210Z,96796.06
2023-04-15T06:05:40.958Z,96797.41
2023-04-15T06:08:08.534Z,96801.78
2023-04-15T06:10:36.957Z,96808.41
2023-04-15T06:13:04.388Z,96804.38
2023-04-15T06:15:39.641Z,96811.69
2023-04-15T06:18:06.504Z,96805.19
2023-04-15T06:20:33.988Z,96792.41
2023-04-15T06:23:01.977Z,96816.59
2023-04-15T06:25:29.997Z,96800.00
2023-04-15T06:27:58.196Z,96820.63
2023-04-15T06:30:26.354Z,96817.13
2023-04-15T06:32:56.439Z,96822.81
2023-04-15T06:35:23.521Z,96819.13
2023-04-15T06:37:52.253Z,96815.03
2023-04-15T06:40:21.811Z,96805.84
2023-04-15T06:42:50.979Z,96819.66
2023-04-15T06:45:19.816Z,96821.47
2023-04-15T06:47:47.731Z,96824.53
2023-04-15T06:50:18.031Z,96825.41
2023-04-15T06:52:44.885Z,96832.78
2023-04-15T06:55:13.959Z,96824.28
2023-04-15T06:57:41.371Z,96821.88
2023-04-15T07:00:11.753Z,96830.97
2023-04-15T07:02:39.768Z,96837.97
2023-04-15T07:05:07.706Z,96844.97
2023-04-15T07:07:36.325Z,96847.41
2023-04-15T07:32:03.658Z,96875.97
2023-04-15T07:34:32.613Z,96878.09
2023-04-15T07:37:01.643Z,96880.63
2023-04-15T07:39:29.384Z,96883.31
2023-04-15T07:41:56.497Z,96887.38
2023-04-15T07:44:24.228Z,96879.66
2023-04-15T07:46:51.407Z,96884.22
2023-04-15T07:49:19.842Z,96890.75
2023-04-15T07:51:50.218Z,96891.94
2023-04-15T07:54:17.297Z,96894.38
2023-04-15T07:56:44.488Z,96893.97
2023-04-15T07:59:15.795Z,96899.50
2023-04-15T08:01:42.941Z,96895.41
2023-04-15T08:04:11.031Z,96899.06
2023-04-15T08:06:40.253Z,96896.47
2023-04-15T08:09:08.599Z,96898.28
2023-04-15T08:11:36.993Z,96909.81
2023-04-15T08:14:04.410Z,96907.09
2023-04-15T08:16:32.530Z,96915.09
2023-04-15T08:19:00.052Z,96913.19
2023-04-15T08:21:31.136Z,96909.59
2023-04-15T08:23:58.360Z,96912.44
2023-04-15T08:26:26.425Z,96907.63
2023-04-15T08:28:54.403Z,96917.81
2023-04-15T08:31:22.949Z,96912.88
2023-04-15T08:33:52.503Z,96917.56
2023-04-15T08:36:20.318Z,96929.56
2023-04-15T08:38:47.735Z,96929.66
2023-04-15T08:41:29.594Z,96936.13
2023-04-15T08:44:06.097Z,96941.41
2023-04-15T08:46:37.389Z,96934.31
2023-04-15T08:49:06.121Z,96934.25
2023-04-15T08:51:34.185Z,96948.97
2023-04-15T08:54:02.912Z,96949.56
2023-04-15T08:56:33.012Z,96950.56
2023-04-15T08:59:04.117Z,96949.22
2023-04-15T09:01:32.931Z,96951.16
2023-04-15T09:04:01.377Z,96945.78
2023-04-15T09:06:28.826Z,96955.53
2023-04-15T09:08:57.710Z,96950.41
2023-04-15T09:11:25.422Z,96954.88
2023-04-15T09:13:52.475Z,96953.84
2023-04-15T09:16:21.683Z,96959.00
2023-04-15T09:18:49.304Z,96963.47
2023-04-15T09:21:19.560Z,96972.44
2023-04-15T09:24:02.309Z,96965.72
2023-04-15T09:26:39.031Z,96963.22
2023-04-15T09:29:08.076Z,96966.28
2023-04-15T09:31:37.019Z,96971.56
2023-04-15T09:34:04.606Z,96979.78
2023-04-15T09:36:47.743Z,96978.28
2023-04-15T09:39:16.748Z,96987.81
2023-04-15T09:41:44.789Z,96994.09
2023-04-15T09:44:25.719Z,96992.69
2023-04-15T09:46:54.307Z,96997.50
2023-04-15T09:49:22.416Z,96990.63
2023-04-15T09:52:01.652Z,96984.16
2023-04-15T09:54:37.512Z,96995.97
2023-04-15T09:57:12.747Z,96980.13
2023-04-15T09:59:40.744Z,96987.44
2023-04-15T10:02:08.386Z,96992.53
2023-04-15T10:04:40.231Z,96994.91
2023-04-15T10:07:15.167Z,96992.03
2023-04-15T10:09:47.089Z,96994.72
2023-04-15T10:12:17.703Z,96991.97
2023-04-15T10:14:49.956Z,96991.47
2023-04-15T10:17:19.292Z,96990.94
2023-04-15T10:19:48.389Z,96992.97
2023-04-15T10:22:16.267Z,96997.50
2023-04-15T10:24:45.597Z,96995.50
2023-04-15T10:27:14.102Z,96994.50
2023-04-15T10:29:41.487Z,97001.16
2023-04-15T10:32:09.390Z,97003.91
2023-04-15T10:34:37.898Z,97001.22
2023-04-15T10:37:05.477Z,97000.84
2023-04-15T10:39:45.392Z,97004.41
2023-04-15T10:42:15.619Z,97016.13
2023-04-15T10:44:56.712Z,97008.75
2023-04-15T10:47:24.260Z,97015.88
2023-04-15T10:49:57.156Z,97023.34
2023-04-15T10:52:27.574Z,97021.69
2023-04-15T10:55:12.938Z,97026.50
2023-04-15T10:57:41.667Z,97028.84
2023-04-15T11:00:18.551Z,97035.69
2023-04-15T11:03:06.331Z,97034.97
2023-04-15T11:05:43.114Z,97038.63
2023-04-15T11:08:14.203Z,97043.38
2023-04-15T11:10:41.480Z,97045.97
2023-04-15T11:13:11.949Z,97046.88
2023-04-15T11:15:46.999Z,97052.00
2023-04-15T11:18:18.762Z,97050.84
2023-04-15T11:21:00.311Z,97050.66
2023-04-15T11:23:41.640Z,97052.88
2023-04-15T11:26:12.555Z,97047.09
2023-04-15T11:28:42.345Z,97043.16
2023-04-15T11:31:18.537Z,97045.19
2023-04-15T11:33:56.709Z,97056.00
2023-04-15T11:36:28.734Z,97059.47
2023-04-15T11:38:57.947Z,97059.47
2023-04-15T11:41:25.498Z,97070.94
2023-04-15T11:43:53.227Z,97067.63
2023-04-15T11:46:22.167Z,97073.13
2023-04-15T11:48:49.342Z,97066.63
2023-04-15T11:51:22.101Z,97068.09
2023-04-15T11:53:51.157Z,97076.56
2023-04-15T11:56:23.574Z,97080.25
2023-04-15T11:59:01.202Z,97079.75
2023-04-15T12:01:47.042Z,97078.53
2023-04-15T12:04:18.681Z,97076.09
2023-04-15T12:06:49.073Z,97074.47
2023-04-15T12:09:17.424Z,97087.94
2023-04-15T12:11:44.915Z,97082.47
2023-04-15T12:14:28.595Z,97083.44
2023-04-15T12:16:58.859Z,97079.22
2023-04-15T12:19:48.700Z,97080.34
2023-04-15T12:22:17.795Z,97095.56
2023-04-15T12:24:48.327Z,97083.19
2023-04-15T12:27:17.825Z,97089.84
2023-04-15T12:29:45.249Z,97092.72
2023-04-15T12:32:13.363Z,97101.41
2023-04-15T12:34:58.328Z,97100.41
2023-04-15T12:37:26.191Z,97097.53
2023-04-15T12:39:54.078Z,97101.56
2023-04-15T12:42:22.883Z,97096.25
2023-04-15T12:44:50.333Z,97102.91
2023-04-15T12:47:18.732Z,97109.72
2023-04-15T12:49:45.888Z,97110.75
2023-04-15T12:52:13.913Z,97109.41
2023-04-15T12:54:41.282Z,97119.06
2023-04-15T12:57:08.461Z,97115.38
2023-04-15T12:59:37.240Z,97111.19
2023-04-15T13:02:05.893Z,97115.66
2023-04-15T13:04:33.870Z,97119.03
2023-04-15T13:07:02.614Z,97125.50
2023-04-15T13:09:29.500Z,97129.69
2023-04-15T13:11:57.763Z,97129.66
2023-04-15T13:14:25.676Z,97137.19
2023-04-15T13:16:54.042Z,97139.19
2023-04-15T13:19:21.476Z,97145.38
2023-04-15T13:21:49.826Z,97150.69
2023-04-15T13:24:18.192Z,97145.88
2023-04-15T13:26:45.351Z,97143.19
2023-04-15T13:29:14.731Z,97151.34
2023-04-15T13:31:44.171Z,97149.16
2023-04-15T13:34:11.601Z,97144.84
2023-04-15T13:36:39.188Z,97144.50
2023-04-15T13:39:06.656Z,97137.13
2023-04-15T13:41:33.707Z,97137.97
2023-04-15T13:44:01.409Z,97144.25
2023-04-15T13:46:28.760Z,97140.69
2023-04-15T13:48:56.197Z,97145.59
2023-04-15T13:51:23.384Z,97150.53
2023-04-15T13:53:50.876Z,97150.19
2023-04-15T13:56:18.970Z,97155.47
2023-04-15T13:58:46.453Z,97153.97
2023-04-15T14:01:13.815Z,97160.56
2023-04-15T14:03:42.315Z,97153.03
2023-04-15T14:06:10.892Z,97158.97
2023-04-15T14:08:39.100Z,97159.66
2023-04-15T14:11:06.681Z,97155.47
2023-04-15T14:13:34.734Z,97161.22
2023-04-15T14:16:02.669Z,97166.75
2023-04-15T14:18:31.235Z,97162.66
2023-04-15T14:20:59.052Z,97169.50
2023-04-15T14:23:26.849Z,97183.13
2023-04-15T14:25:54.414Z,97172.75
2023-04-15T14:28:22.544Z,97182.25
2023-04-15T14:30:50.142Z,97189.03
2023-04-15T14:33:18.079Z,97188.91
2023-04-15T14:35:46.696Z,97197.13
2023-04-15T14:38:14.021Z,97201.06
2023-04-15T14:40:42.649Z,97195.53
2023-04-15T14:43:09.675Z,97204.09
2023-04-15T14:45:39.482Z,97209.59
2023-04-15T14:48:10.246Z,97203.09
2023-04-15T14:50:37.826Z,97203.88
2023-04-15T14:53:05.770Z,97208.97
2023-04-15T14:55:41.355Z,97207.50
2023-04-15T14:58:09.606Z,97204.41
2023-04-15T15:00:41.492Z,97208.94
2023-04-15T15:03:13.228Z,97214.44
2023-04-15T15:05:46.783Z,97216.03
2023-04-15T15:08:14.302Z,97222.53
2023-04-15T15:10:49.478Z,97227.72
2023-04-15T15:13:18.092Z,97228.44
2023-04-15T15:15:45.637Z,97234.09
2023-04-15T15:18:13.449Z,97235.53
2023-04-15T15:20:41.285Z,97228.31
2023-04-15T15:23:08.892Z,97244.38
2023-04-15T15:25:36.405Z,97242.16
2023-04-15T15:28:03.876Z,97248.56
2023-04-15T15:30:31.404Z,97257.56
2023-04-15T15:32:58.466Z,97255.03
2023-04-15T15:35:26.191Z,97259.06
2023-04-15T15:37:55.259Z,97257.16
2023-04-15T15:40:24.831Z,97267.00
2023-04-15T15:42:53.087Z,97260.59
2023-04-15T15:45:20.714Z,97258.13
2023-04-15T15:47:48.150Z,97253.97
2023-04-15T15:50:15.858Z,97261.38
2023-04-15T15:52:43.735Z,97266.13
2023-04-15T15:55:11.437Z,97266.38
2023-04-15T15:57:38.618Z,97271.91
2023-04-15T16:03:04.297Z,97271.38
2023-04-15T16:05:25.544Z,97273.28
2023-04-15T16:07:53.142Z,97272.06
2023-04-15T16:10:20.694Z,97276.53
2023-04-15T16:12:47.850Z,97274.41
2023-04-15T16:15:15.998Z,97272.81
2023-04-15T16:17:43.530Z,97279.19
2023-04-15T16:20:11.236Z,97279.47
2023-04-15T16:22:39.839Z,97281.13
2023-04-15T16:25:07.705Z,97282.78
2023-04-15T16:27:49.957Z,97291.41
2023-04-15T16:30:23.898Z,97289.91
2023-04-15T16:32:53.160Z,97290.44
2023-04-15T16:35:22.222Z,97295.16
2023-04-15T16:37:49.818Z,97296.13
2023-04-15T16:40:17.273Z,97297.03
2023-04-15T16:42:44.723Z,97306.91
2023-04-15T16:45:12.846Z,97297.59
2023-04-15T16:47:40.170Z,97305.44
2023-04-15T16:50:08.071Z,97321.78
2023-04-15T16:52:37.463Z,97313.19
2023-04-15T16:55:06.186Z,97321.91
2023-04-15T16:58:01.836Z,97320.28
2023-04-15T17:00:24.566Z,97320.56
2023-04-15T17:02:53.582Z,97326.75
2023-04-15T17:05:21.517Z,97332.31
2023-04-15T17:07:48.661Z,97334.78
2023-04-15T17:10:15.768Z,97340.34
2023-04-15T17:12:43.322Z,97337.81
2023-04-15T17:15:10.693Z,97340.59
2023-04-15T17:17:37.628Z,97348.59
2023-04-15T17:20:05.490Z,97359.94
2023-04-15T17:22:35.128Z,97360.97
2023-04-15T17:25:03.294Z,97373.31
2023-04-15T17:27:31.061Z,97367.94
2023-04-15T17:29:58.204Z,97375.78
2023-04-15T17:32:32.009Z,97374.97
2023-04-15T17:35:00.026Z,97375.81
2023-04-15T17:37:27.736Z,97381.31
2023-04-15T17:39:55.089Z,97377.66
2023-04-15T17:42:23.149Z,97384.38
2023-04-15T17:44:50.783Z,97392.69
2023-04-15T17:47:17.751Z,97377.31
2023-04-15T17:49:45.522Z,97377.88
2023-04-15T17:52:12.878Z,97396.34
2023-04-15T17:54:40.497Z,97405.00
2023-04-15T17:57:07.876Z,97397.25
2023-04-15T17:59:35.472Z,97410.00
2023-04-15T18:02:02.845Z,97413.75
2023-04-15T18:04:29.971Z,97416.31
2023-04-15T18:06:56.923Z,97419.19
2023-04-15T18:09:24.108Z,97415.81
2023-04-15T18:11:51.266Z,97428.97
2023-04-15T18:14:33.045Z,97430.75
2023-04-15T18:17:02.890Z,97436.16
2023-04-15T18:19:30.710Z,97435.97
2023-04-15T18:22:00.727Z,97449.06
2023-04-15T18:24:28.893Z,97443.22
2023-04-15T18:26:59.256Z,97447.81
2023-04-15T18:29:26.507Z,97448.44
2023-04-15T18:31:54.115Z,97446.63
2023-04-15T18:34:21.600Z,97458.81
2023-04-15T18:36:48.359Z,97444.66
2023-04-15T18:39:16.753Z,97462.38
2023-04-15T18:41:43.988Z,97461.84
2023-04-15T18:44:10.942Z,97469.47
2023-04-15T18:46:38.155Z,97457.13
2023-04-15T18:49:06.544Z,97469.97
2023-04-15T18:51:33.788Z,97477.56
2023-04-15T18:54:01.103Z,97478.31
2023-04-15T18:56:28.155Z,97482.94
2023-04-15T18:59:08.920Z,97477.41
2023-04-15T19:01:42.211Z,97487.50
2023-04-15T19:04:10.277Z,97489.31
2023-04-15T19:06:37.708Z,97494.84
2023-04-15T19:09:05.793Z,97501.31
2023-04-15T19:11:33.463Z,97502.63
2023-04-15T19:14:01.707Z,97510.59
2023-04-15T19:16:28.511Z,97514.44
2023-04-15T19:18:55.611Z,97515.16
2023-04-15T19:21:23.002Z,97525.22
2023-04-15T19:23:50.299Z,97532.63
2023-04-15T19:26:17.492Z,97523.25
2023-04-15T19:28:44.548Z,97533.59
2023-04-15T19:31:11.866Z,97537.22
2023-04-15T19:33:38.969Z,97541.69
2023-04-15T19:36:07.246Z,97540.25
2023-04-15T19:38:37.908Z,97536.63
2023-04-15T19:41:04.805Z,97536.06
2023-04-15T19:43:33.362Z,97544.72
2023-04-15T19:46:00.646Z,97545.66
2023-04-15T19:48:28.069Z,97531.56
2023-04-15T19:50:55.381Z,97542.16
2023-04-15T19:53:22.877Z,97550.59
2023-04-15T19:55:50.333Z,97558.53
2023-04-15T19:58:17.125Z,97553.94
2023-04-15T20:00:45.028Z,97559.63
2023-04-15T20:03:12.866Z,97570.03
2023-04-15T20:05:40.194Z,97567.56
2023-04-15T20:08:07.019Z,97578.84
2023-04-15T20:10:35.433Z,97581.31
2023-04-15T20:13:02.426Z,97583.56
2023-04-15T20:15:29.456Z,97580.88
2023-04-15T20:17:56.731Z,97576.84
2023-04-15T20:20:23.885Z,97581.00
2023-04-15T20:22:52.811Z,97591.13
2023-04-15T20:25:20.307Z,97590.16
2023-04-15T20:27:47.376Z,97595.31
2023-04-15T20:30:14.663Z,97593.91
2023-04-15T20:32:42.341Z,97604.38
2023-04-15T20:35:09.354Z,97608.97
2023-04-15T20:37:37.511Z,97606.38
2023-04-15T20:40:05.154Z,97604.34
2023-04-15T20:42:35.272Z,97602.09
2023-04-15T20:45:03.249Z,97603.50
2023-04-15T20:47:30.521Z,97611.31
2023-04-15T20:49:57.442Z,97605.44
2023-04-15T20:52:24.201Z,97602.41
2023-04-15T20:54:51.848Z,97603.72
2023-04-15T20:57:20.260Z,97610.38
2023-04-15T20:59:47.680Z,97614.25
2023-04-15T21:02:15.356Z,97614.25
2023-04-15T21:04:42.798Z,97619.53
2023-04-15T21:07:10.132Z,97616.88
2023-04-15T21:09:41.798Z,97629.59
2023-04-15T21:12:10.468Z,97630.72
2023-04-15T21:14:39.721Z,97631.00
2023-04-15T21:17:10.846Z,97638.72
2023-04-15T21:19:38.822Z,97637.38
2023-04-15T21:22:05.968Z,97642.13
2023-04-15T21:24:33.508Z,97642.50
2023-04-15T21:27:02.285Z,97644.28
2023-04-15T21:29:29.573Z,97644.22
2023-04-15T21:31:57.087Z,97646.81
2023-04-15T21:34:24.050Z,97643.38
2023-04-15T21:36:52.847Z,97657.13
2023-04-15T21:39:19.695Z,97649.56
2023-04-15T21:41:46.829Z,97660.28
2023-04-15T21:44:15.106Z,97657.38
2023-04-15T21:46:46.365Z,97658.50
2023-04-15T21:49:13.985Z,97660.25
2023-04-15T21:51:40.989Z,97646.75
2023-04-15T21:54:08.309Z,97659.03
2023-04-15T21:56:35.537Z,97662.97
2023-04-15T21:59:03.473Z,97666.88
2023-04-15T22:01:30.994Z,97673.97
2023-04-15T22:03:58.131Z,97667.25
2023-04-15T22:06:25.348Z,97672.56
2023-04-15T22:08:56.735Z,97674.34
2023-04-15T22:11:30.484Z,97678.41
2023-04-15T22:13:59.200Z,97674.75
2023-04-15T22:16:26.776Z,97674.94
2023-04-15T22:18:55.393Z,97685.41
2023-04-15T22:21:22.963Z,97685.41
2023-04-15T22:23:50.463Z,97687.19
2023-04-15T22:26:17.379Z,97676.22
2023-04-15T22:28:44.274Z,97677.31
2023-04-15T22:31:11.640Z,97680.47
2023-04-15T22:33:39.964Z,97691.41
2023-04-15T22:36:06.961Z,97697.53
2023-04-15T22:38:34.060Z,97699.47
2023-04-15T22:41:01.401Z,97703.59
2023-04-15T22:43:28.277Z,97709.22
2023-04-15T22:45:57.542Z,97717.16
2023-04-15T22:48:24.822Z,97709.66
2023-04-15T22:50:52.322Z,97714.81
2023-04-15T22:53:20.276Z,97720.00
2023-04-15T22:55:48.459Z,97714.03
2023-04-15T22:58:18.583Z,97718.16
2023-04-15T23:00:46.086Z,97713.63
2023-04-15T23:03:13.963Z,97723.88
2023-04-15T23:05:42.158Z,97730.38
2023-04-15T23:08:09.328Z,97736.06
2023-04-15T23:10:36.963Z,97739.00
2023-04-15T23:13:03.959Z,97730.34
2023-04-15T23:15:30.995Z,97740.81
2023-04-15T23:17:57.870Z,97736.72
2023-04-15T23:20:24.732Z,97733.69
2023-04-15T23:22:51.711Z,97739.94
2023-04-15T23:25:22.387Z,97743.91
2023-04-15T23:27:49.270Z,97746.56
2023-04-15T23:30:16.097Z,97746.22
2023-04-15T23:32:43.469Z,97748.16
2023-04-15T23:35:10.869Z,97749.22
2023-04-15T23:37:37.942Z,97743.47
2023-04-15T23:40:05.459Z,97742.25
2023-04-15T23:42:32.338Z,97748.41
2023-04-15T23:44:59.858Z,97747.78
2023-04-15T23:47:27.267Z,97751.28
2023-04-15T23:49:54.472Z,97750.22
2023-04-15T23:52:21.353Z,97750.44
2023-04-15T23:54:49.014Z,97738.88
2023-04-15T23:57:16.377Z,97750.19
2023-04-15T23:59:43.297Z,97750.16
